sensor_id;sensor_type;location;lat;lon;timestamp;pressure;altitude;pressure_sealevel;temperature;humidity
13422;BME280;6782;55.904;13.396;2023-06-24T00:01:09;101461.91;;;15.89;100.00
13422;BME280;6782;55.904;13.396;2023-06-24T00:03:58;101468.06;;;15.90;100.00
13422;BME280;6782;55.904;13.396;2023-06-24T00:06:46;101458.41;;;15.87;100.00
13422;BME280;6782;55.904;13.396;2023-06-24T00:09:33;101468.75;;;15.96;100.00
13422;BME280;6782;55.904;13.396;2023-06-24T00:12:20;101464.81;;;15.82;100.00
13422;BME280;6782;55.904;13.396;2023-06-24T00:15:08;101468.13;;;15.62;100.00
13422;BME280;6782;55.904;13.396;2023-06-24T00:17:58;101467.03;;;15.40;100.00
13422;BME280;6782;55.904;13.396;2023-06-24T00:20:51;101483.94;;;15.10;100.00
13422;BME280;6782;55.904;13.396;2023-06-24T00:23:38;101514.00;;;15.39;100.00
13422;BME280;6782;55.904;13.396;2023-06-24T00:26:26;101518.94;;;15.24;100.00
13422;BME280;6782;55.904;13.396;2023-06-24T00:29:14;101531.25;;;15.26;100.00
13422;BME280;6782;55.904;13.396;2023-06-24T00:32:01;101558.75;;;15.56;100.00
13422;BME280;6782;55.904;13.396;2023-06-24T00:34:50;101565.25;;;15.44;100.00
13422;BME280;6782;55.904;13.396;2023-06-24T00:37:38;101568.81;;;15.43;100.00
13422;BME280;6782;55.904;13.396;2023-06-24T00:40:25;101579.13;;;15.55;100.00
13422;BME280;6782;55.904;13.396;2023-06-24T00:43:12;101579.31;;;15.49;100.00
13422;BME280;6782;55.904;13.396;2023-06-24T00:46:00;101581.19;;;15.44;100.00
13422;BME280;6782;55.904;13.396;2023-06-24T00:48:48;101575.47;;;15.29;100.00
13422;BME280;6782;55.904;13.396;2023-06-24T00:51:37;101571.56;;;15.11;100.00
13422;BME280;6782;55.904;13.396;2023-06-24T00:54:26;101579.91;;;14.97;100.00
13422;BME280;6782;55.904;13.396;2023-06-24T00:57:17;101594.38;;;14.87;100.00
13422;BME280;6782;55.904;13.396;2023-06-24T01:00:10;101612.81;;;14.92;100.00
13422;BME280;6782;55.904;13.396;2023-06-24T01:03:00;101624.31;;;14.94;100.00
13422;BME280;6782;55.904;13.396;2023-06-24T01:05:48;101618.47;;;14.80;100.00
13422;BME280;6782;55.904;13.396;2023-06-24T01:08:37;101622.28;;;14.70;100.00
13422;BME280;6782;55.904;13.396;2023-06-24T01:11:24;101622.69;;;14.55;100.00
13422;BME280;6782;55.904;13.396;2023-06-24T01:14:11;101620.94;;;14.54;100.00
13422;BME280;6782;55.904;13.396;2023-06-24T01:17:03;101612.66;;;14.32;100.00
13422;BME280;6782;55.904;13.396;2023-06-24T01:20:03;101607.78;;;14.12;100.00
13422;BME280;6782;55.904;13.396;2023-06-24T01:26:51;101616.75;;;14.08;100.00
13422;BME280;6782;55.904;13.396;2023-06-24T01:29:56;101622.13;;;14.05;100.00
13422;BME280;6782;55.904;13.396;2023-06-24T01:32:54;101626.72;;;13.99;100.00
13422;BME280;6782;55.904;13.396;2023-06-24T01:35:42;101627.84;;;13.87;100.00
13422;BME280;6782;55.904;13.396;2023-06-24T01:38:35;101628.94;;;13.78;100.00
13422;BME280;6782;55.904;13.396;2023-06-24T01:41:26;101622.97;;;13.69;100.00
13422;BME280;6782;55.904;13.396;2023-06-24T01:44:16;101622.28;;;13.59;100.00
13422;BME280;6782;55.904;13.396;2023-06-24T01:47:06;101623.94;;;13.65;100.00
13422;BME280;6782;55.904;13.396;2023-06-24T01:49:58;101635.09;;;13.79;100.00
13422;BME280;6782;55.904;13.396;2023-06-24T01:52:48;101635.19;;;13.76;100.00
13422;BME280;6782;55.904;13.396;2023-06-24T01:55:38;101637.25;;;13.62;100.00
13422;BME280;6782;55.904;13.396;2023-06-24T01:58:30;101643.31;;;13.68;100.00
13422;BME280;6782;55.904;13.396;2023-06-24T02:01:21;101642.38;;;13.71;100.00
13422;BME280;6782;55.904;13.396;2023-06-24T02:04:10;101640.66;;;13.68;100.00
13422;BME280;6782;55.904;13.396;2023-06-24T02:07:02;101651.00;;;13.79;100.00
13422;BME280;6782;55.904;13.396;2023-06-24T02:09:51;101666.78;;;13.87;100.00
13422;BME280;6782;55.904;13.396;2023-06-24T02:12:39;101673.78;;;13.89;100.00
13422;BME280;6782;55.904;13.396;2023-06-24T02:15:27;101675.59;;;13.87;100.00
13422;BME280;6782;55.904;13.396;2023-06-24T02:18:16;101686.03;;;13.95;100.00
13422;BME280;6782;55.904;13.396;2023-06-24T02:21:05;101698.34;;;13.97;100.00
13422;BME280;6782;55.904;13.396;2023-06-24T02:23:55;101714.19;;;14.00;100.00
13422;BME280;6782;55.904;13.396;2023-06-24T02:26:42;101719.44;;;14.03;100.00
13422;BME280;6782;55.904;13.396;2023-06-24T02:29:30;101722.38;;;13.90;100.00
13422;BME280;6782;55.904;13.396;2023-06-24T02:32:19;101722.75;;;13.73;100.00
13422;BME280;6782;55.904;13.396;2023-06-24T02:35:07;101718.66;;;13.57;100.00
13422;BME280;6782;55.904;13.396;2023-06-24T02:37:54;101727.63;;;13.50;100.00
13422;BME280;6782;55.904;13.396;2023-06-24T02:40:45;101752.06;;;13.64;100.00
13422;BME280;6782;55.904;13.396;2023-06-24T02:43:32;101767.75;;;13.76;100.00
13422;BME280;6782;55.904;13.396;2023-06-24T02:46:22;101751.69;;;13.39;100.00
13422;BME280;6782;55.904;13.396;2023-06-24T02:49:10;101777.22;;;13.45;100.00
13422;BME280;6782;55.904;13.396;2023-06-24T02:51:59;101784.31;;;13.43;100.00
13422;BME280;6782;55.904;13.396;2023-06-24T02:54:46;101782.47;;;13.48;100.00
13422;BME280;6782;55.904;13.396;2023-06-24T02:57:36;101786.00;;;13.47;100.00
13422;BME280;6782;55.904;13.396;2023-06-24T03:00:25;101787.75;;;13.48;100.00
13422;BME280;6782;55.904;13.396;2023-06-24T03:03:12;101779.97;;;13.39;100.00
13422;BME280;6782;55.904;13.396;2023-06-24T03:06:00;101782.47;;;13.48;100.00
13422;BME280;6782;55.904;13.396;2023-06-24T03:08:49;101799.78;;;13.64;100.00
13422;BME280;6782;55.904;13.396;2023-06-24T03:11:45;101811.97;;;13.74;100.00
13422;BME280;6782;55.904;13.396;2023-06-24T03:14:34;101824.97;;;13.89;100.00
13422;BME280;6782;55.904;13.396;2023-06-24T03:17:21;101853.19;;;14.36;100.00
13422;BME280;6782;55.904;13.396;2023-06-24T03:20:10;101901.19;;;15.42;100.00
13422;BME280;6782;55.904;13.396;2023-06-24T03:22:58;101940.22;;;16.73;100.00
13422;BME280;6782;55.904;13.396;2023-06-24T03:25:45;101922.25;;;17.63;100.00
13422;BME280;6782;55.904;13.396;2023-06-24T03:28:32;101876.78;;;18.39;100.00
13422;BME280;6782;55.904;13.396;2023-06-24T03:31:20;101826.16;;;19.24;100.00
13422;BME280;6782;55.904;13.396;2023-06-24T03:34:09;101734.06;;;19.90;100.00
13422;BME280;6782;55.904;13.396;2023-06-24T03:36:56;101604.28;;;19.97;100.00
13422;BME280;6782;55.904;13.396;2023-06-24T03:39:43;101492.50;;;19.48;100.00
13422;BME280;6782;55.904;13.396;2023-06-24T03:42:30;101382.22;;;18.68;100.00
13422;BME280;6782;55.904;13.396;2023-06-24T03:45:17;101364.16;;;18.92;100.00
13422;BME280;6782;55.904;13.396;2023-06-24T03:48:06;101328.88;;;19.02;100.00
13422;BME280;6782;55.904;13.396;2023-06-24T03:50:53;101300.25;;;19.40;100.00
13422;BME280;6782;55.904;13.396;2023-06-24T03:53:41;101295.44;;;20.14;100.00
13422;BME280;6782;55.904;13.396;2023-06-24T03:56:28;101240.19;;;20.59;100.00
13422;BME280;6782;55.904;13.396;2023-06-24T03:59:15;101140.91;;;20.00;100.00
13422;BME280;6782;55.904;13.396;2023-06-24T04:02:04;101110.41;;;19.87;100.00
13422;BME280;6782;55.904;13.396;2023-06-24T04:04:55;101137.06;;;19.40;100.00
13422;BME280;6782;55.904;13.396;2023-06-24T04:07:42;101105.72;;;19.09;100.00
13422;BME280;6782;55.904;13.396;2023-06-24T04:10:32;101170.59;;;19.13;100.00
13422;BME280;6782;55.904;13.396;2023-06-24T04:13:19;101185.75;;;19.29;100.00
13422;BME280;6782;55.904;13.396;2023-06-24T04:16:06;101116.25;;;18.78;100.00
13422;BME280;6782;55.904;13.396;2023-06-24T04:18:53;101100.56;;;18.00;100.00
13422;BME280;6782;55.904;13.396;2023-06-24T04:21:42;101219.13;;;17.76;100.00
13422;BME280;6782;55.904;13.396;2023-06-24T04:24:30;101276.91;;;17.57;100.00
13422;BME280;6782;55.904;13.396;2023-06-24T04:27:17;101279.06;;;17.06;100.00
13422;BME280;6782;55.904;13.396;2023-06-24T04:30:05;101318.69;;;16.48;100.00
13422;BME280;6782;55.904;13.396;2023-06-24T04:32:53;101339.28;;;16.20;100.00
13422;BME280;6782;55.904;13.396;2023-06-24T04:35:40;101385.09;;;16.28;100.00
13422;BME280;6782;55.904;13.396;2023-06-24T04:38:29;101402.91;;;16.26;100.00
13422;BME280;6782;55.904;13.396;2023-06-24T04:41:16;101428.28;;;16.36;100.00
13422;BME280;6782;55.904;13.396;2023-06-24T04:44:05;101454.34;;;16.51;100.00
13422;BME280;6782;55.904;13.396;2023-06-24T04:46:52;101472.03;;;16.54;100.00
13422;BME280;6782;55.904;13.396;2023-06-24T04:49:39;101477.75;;;16.43;100.00
13422;BME280;6782;55.904;13.396;2023-06-24T04:52:26;101498.19;;;16.43;100.00
13422;BME280;6782;55.904;13.396;2023-06-24T04:55:15;101517.34;;;16.27;100.00
13422;BME280;6782;55.904;13.396;2023-06-24T04:58:02;101522.31;;;16.12;100.00
13422;BME280;6782;55.904;13.396;2023-06-24T05:00:49;101544.63;;;16.08;100.00
13422;BME280;6782;55.904;13.396;2023-06-24T05:03:36;101571.28;;;16.06;100.00
13422;BME280;6782;55.904;13.396;2023-06-24T05:06:24;101593.41;;;16.08;100.00
13422;BME280;6782;55.904;13.396;2023-06-24T05:09:11;101602.50;;;16.01;100.00
13422;BME280;6782;55.904;13.396;2023-06-24T05:12:01;101622.91;;;16.01;100.00
13422;BME280;6782;55.904;13.396;2023-06-24T05:14:50;101630.91;;;16.01;100.00
13422;BME280;6782;55.904;13.396;2023-06-24T05:17:39;101639.50;;;16.09;100.00
13422;BME280;6782;55.904;13.396;2023-06-24T05:20:26;101652.09;;;16.04;100.00
13422;BME280;6782;55.904;13.396;2023-06-24T05:23:13;101671.34;;;16.12;100.00
13422;BME280;6782;55.904;13.396;2023-06-24T05:26:01;101676.78;;;16.09;100.00
13422;BME280;6782;55.904;13.396;2023-06-24T05:28:50;101683.84;;;16.10;100.00
13422;BME280;6782;55.904;13.396;2023-06-24T05:31:37;101697.72;;;16.19;100.00
13422;BME280;6782;55.904;13.396;2023-06-24T05:34:24;101706.19;;;16.32;100.00
13422;BME280;6782;55.904;13.396;2023-06-24T05:37:12;101720.06;;;16.43;100.00
13422;BME280;6782;55.904;13.396;2023-06-24T05:39:59;101722.50;;;16.49;100.00
13422;BME280;6782;55.904;13.396;2023-06-24T05:42:47;101727.78;;;16.51;100.00
13422;BME280;6782;55.904;13.396;2023-06-24T05:45:36;101730.16;;;16.61;100.00
13422;BME280;6782;55.904;13.396;2023-06-24T05:48:23;101729.53;;;16.53;100.00
13422;BME280;6782;55.904;13.396;2023-06-24T05:51:10;101738.44;;;16.78;100.00
13422;BME280;6782;55.904;13.396;2023-06-24T05:53:57;101743.16;;;16.97;100.00
13422;BME280;6782;55.904;13.396;2023-06-24T05:56:45;101737.41;;;17.09;100.00
13422;BME280;6782;55.904;13.396;2023-06-24T05:59:32;101723.16;;;17.10;100.00
13422;BME280;6782;55.904;13.396;2023-06-24T06:02:21;101701.25;;;17.02;100.00
13422;BME280;6782;55.904;13.396;2023-06-24T06:05:08;101694.22;;;16.99;100.00
13422;BME280;6782;55.904;13.396;2023-06-24T06:07:56;101685.63;;;17.16;100.00
13422;BME280;6782;55.904;13.396;2023-06-24T06:10:43;101670.91;;;17.29;100.00
13422;BME280;6782;55.904;13.396;2023-06-24T06:13:30;101669.13;;;17.54;100.00
13422;BME280;6782;55.904;13.396;2023-06-24T06:16:18;101651.38;;;17.76;100.00
13422;BME280;6782;55.904;13.396;2023-06-24T06:19:06;101638.13;;;17.96;100.00
13422;BME280;6782;55.904;13.396;2023-06-24T06:21:53;101609.06;;;18.10;100.00
13422;BME280;6782;55.904;13.396;2023-06-24T06:24:41;101569.84;;;18.12;100.00
13422;BME280;6782;55.904;13.396;2023-06-24T06:27:28;101521.28;;;18.03;100.00
13422;BME280;6782;55.904;13.396;2023-06-24T06:30:15;101519.00;;;18.36;100.00
13422;BME280;6782;55.904;13.396;2023-06-24T06:33:03;101482.53;;;18.14;100.00
13422;BME280;6782;55.904;13.396;2023-06-24T06:35:52;101457.66;;;17.92;100.00
13422;BME280;6782;55.904;13.396;2023-06-24T06:38:40;101461.84;;;18.20;100.00
13422;BME280;6782;55.904;13.396;2023-06-24T06:41:27;101439.41;;;18.24;100.00
13422;BME280;6782;55.904;13.396;2023-06-24T06:44:14;101424.34;;;18.23;100.00
13422;BME280;6782;55.904;13.396;2023-06-24T06:47:02;101385.44;;;17.97;100.00
13422;BME280;6782;55.904;13.396;2023-06-24T06:49:49;101353.88;;;17.86;100.00
13422;BME280;6782;55.904;13.396;2023-06-24T06:52:38;101327.81;;;17.51;100.00
13422;BME280;6782;55.904;13.396;2023-06-24T06:55:25;101340.25;;;17.72;100.00
13422;BME280;6782;55.904;13.396;2023-06-24T06:58:12;101319.44;;;17.80;100.00
13422;BME280;6782;55.904;13.396;2023-06-24T07:01:00;101306.38;;;17.74;100.00
13422;BME280;6782;55.904;13.396;2023-06-24T07:03:51;101308.28;;;17.91;100.00
13422;BME280;6782;55.904;13.396;2023-06-24T07:06:38;101297.22;;;18.19;100.00
13422;BME280;6782;55.904;13.396;2023-06-24T07:09:26;101265.09;;;17.63;100.00
13422;BME280;6782;55.904;13.396;2023-06-24T07:12:13;101302.88;;;18.12;100.00
13422;BME280;6782;55.904;13.396;2023-06-24T07:15:00;101265.03;;;17.84;100.00
13422;BME280;6782;55.904;13.396;2023-06-24T07:17:48;101255.03;;;17.69;100.00
13422;BME280;6782;55.904;13.396;2023-06-24T07:20:35;101307.91;;;18.19;100.00
13422;BME280;6782;55.904;13.396;2023-06-24T07:23:22;101265.91;;;18.03;100.00
13422;BME280;6782;55.904;13.396;2023-06-24T07:26:11;101288.09;;;18.80;100.00
13422;BME280;6782;55.904;13.396;2023-06-24T07:28:58;101236.34;;;18.45;100.00
13422;BME280;6782;55.904;13.396;2023-06-24T07:31:46;101238.06;;;18.65;100.00
13422;BME280;6782;55.904;13.396;2023-06-24T07:34:33;101261.03;;;19.22;100.00
13422;BME280;6782;55.904;13.396;2023-06-24T07:37:20;101124.28;;;18.78;100.00
13422;BME280;6782;55.904;13.396;2023-06-24T07:40:08;101089.09;;;18.34;100.00
13422;BME280;6782;55.904;13.396;2023-06-24T07:42:57;101120.34;;;18.68;100.00
13422;BME280;6782;55.904;13.396;2023-06-24T07:45:44;101117.97;;;19.13;100.00
13422;BME280;6782;55.904;13.396;2023-06-24T07:48:31;101058.19;;;18.47;100.00
13422;BME280;6782;55.904;13.396;2023-06-24T07:51:19;101135.44;;;18.69;100.00
13422;BME280;6782;55.904;13.396;2023-06-24T07:54:06;101163.88;;;19.21;100.00
13422;BME280;6782;55.904;13.396;2023-06-24T07:56:53;101104.16;;;19.05;100.00
13422;BME280;6782;55.904;13.396;2023-06-24T07:59:42;101089.47;;;18.97;100.00
13422;BME280;6782;55.904;13.396;2023-06-24T08:02:29;101005.22;;;18.72;100.00
13422;BME280;6782;55.904;13.396;2023-06-24T08:05:17;101038.38;;;18.86;100.00
13422;BME280;6782;55.904;13.396;2023-06-24T08:08:06;101104.31;;;19.35;100.00
13422;BME280;6782;55.904;13.396;2023-06-24T08:10:53;101051.91;;;19.15;100.00
13422;BME280;6782;55.904;13.396;2023-06-24T08:13:41;101142.59;;;19.37;100.00
13422;BME280;6782;55.904;13.396;2023-06-24T08:16:30;101089.63;;;19.44;100.00
13422;BME280;6782;55.904;13.396;2023-06-24T08:19:17;101074.66;;;19.57;100.00
13422;BME280;6782;55.904;13.396;2023-06-24T08:22:04;100998.31;;;19.81;100.00
13422;BME280;6782;55.904;13.396;2023-06-24T08:24:51;101092.75;;;20.45;100.00
13422;BME280;6782;55.904;13.396;2023-06-24T08:27:38;100942.94;;;20.27;100.00
13422;BME280;6782;55.904;13.396;2023-06-24T08:30:26;100902.22;;;20.06;100.00
13422;BME280;6782;55.904;13.396;2023-06-24T08:33:15;100881.72;;;19.91;100.00
13422;BME280;6782;55.904;13.396;2023-06-24T08:36:02;100932.88;;;19.71;100.00
13422;BME280;6782;55.904;13.396;2023-06-24T08:38:49;101102.09;;;20.38;100.00
13422;BME280;6782;55.904;13.396;2023-06-24T08:41:36;100877.31;;;20.34;100.00
13422;BME280;6782;55.904;13.396;2023-06-24T08:44:23;100827.78;;;19.83;100.00
13422;BME280;6782;55.904;13.396;2023-06-24T08:47:11;100951.13;;;19.94;100.00
13422;BME280;6782;55.904;13.396;2023-06-24T08:50:04;100910.47;;;19.58;100.00
13422;BME280;6782;55.904;13.396;2023-06-24T08:52:54;101078.28;;;19.87;100.00
13422;BME280;6782;55.904;13.396;2023-06-24T08:55:43;101021.03;;;20.19;100.00
13422;BME280;6782;55.904;13.396;2023-06-24T08:58:31;100960.22;;;20.21;100.00
13422;BME280;6782;55.904;13.396;2023-06-24T09:01:19;100973.56;;;20.67;100.00
13422;BME280;6782;55.904;13.396;2023-06-24T09:04:07;100804.13;;;20.62;100.00
13422;BME280;6782;55.904;13.396;2023-06-24T09:06:56;100839.91;;;20.60;100.00
13422;BME280;6782;55.904;13.396;2023-06-24T09:09:43;100784.81;;;20.97;100.00
13422;BME280;6782;55.904;13.396;2023-06-24T09:12:32;100525.63;;;20.58;100.00
13422;BME280;6782;55.904;13.396;2023-06-24T09:15:19;100555.34;;;20.81;100.00
13422;BME280;6782;55.904;13.396;2023-06-24T09:18:07;100516.94;;;20.55;100.00
13422;BME280;6782;55.904;13.396;2023-06-24T09:20:56;100721.97;;;20.75;100.00
13422;BME280;6782;55.904;13.396;2023-06-24T09:23:45;100699.25;;;21.46;100.00
13422;BME280;6782;55.904;13.396;2023-06-24T09:26:32;100334.44;;;20.96;100.00
13422;BME280;6782;55.904;13.396;2023-06-24T09:29:25;100449.00;;;21.55;100.00
13422;BME280;6782;55.904;13.396;2023-06-24T09:32:12;100119.03;;;21.43;100.00
13422;BME280;6782;55.904;13.396;2023-06-24T09:35:02;100017.69;;;21.35;100.00
13422;BME280;6782;55.904;13.396;2023-06-24T09:37:52;99953.69;;;21.31;100.00
13422;BME280;6782;55.904;13.396;2023-06-24T09:40:42;99871.88;;;21.25;100.00
13422;BME280;6782;55.904;13.396;2023-06-24T09:43:29;100058.66;;;21.37;100.00
13422;BME280;6782;55.904;13.396;2023-06-24T09:46:17;99997.91;;;21.69;100.00
13422;BME280;6782;55.904;13.396;2023-06-24T09:49:05;99710.63;;;21.18;100.00
13422;BME280;6782;55.904;13.396;2023-06-24T09:51:55;99889.91;;;21.01;100.00
13422;BME280;6782;55.904;13.396;2023-06-24T09:54:44;99938.94;;;21.14;100.00
13422;BME280;6782;55.904;13.396;2023-06-24T09:57:35;100141.13;;;21.57;100.00
13422;BME280;6782;55.904;13.396;2023-06-24T10:00:24;100023.25;;;21.99;100.00
13422;BME280;6782;55.904;13.396;2023-06-24T10:03:12;99930.34;;;22.39;100.00
13422;BME280;6782;55.904;13.396;2023-06-24T10:06:00;99825.59;;;22.69;100.00
13422;BME280;6782;55.904;13.396;2023-06-24T10:08:49;99244.72;;;22.26;100.00
13422;BME280;6782;55.904;13.396;2023-06-24T10:11:36;99188.13;;;21.91;100.00
13422;BME280;6782;55.904;13.396;2023-06-24T10:14:25;99131.13;;;21.50;100.00
13422;BME280;6782;55.904;13.396;2023-06-24T10:17:12;99595.53;;;22.08;100.00
13422;BME280;6782;55.904;13.396;2023-06-24T10:20:03;99611.41;;;22.70;100.00
13422;BME280;6782;55.904;13.396;2023-06-24T10:22:52;99049.69;;;22.60;100.00
13422;BME280;6782;55.904;13.396;2023-06-24T10:25:39;98795.50;;;22.41;100.00
13422;BME280;6782;55.904;13.396;2023-06-24T10:28:26;99002.81;;;22.72;100.00
13422;BME280;6782;55.904;13.396;2023-06-24T10:31:15;98703.78;;;22.03;100.00
13422;BME280;6782;55.904;13.396;2023-06-24T10:34:20;99266.00;;;22.37;100.00
13422;BME280;6782;55.904;13.396;2023-06-24T10:37:12;99552.53;;;22.76;100.00
13422;BME280;6782;55.904;13.396;2023-06-24T10:40:00;99593.25;;;23.20;100.00
13422;BME280;6782;55.904;13.396;2023-06-24T10:42:48;99206.91;;;22.37;100.00
13422;BME280;6782;55.904;13.396;2023-06-24T10:45:48;99377.16;;;22.36;100.00
13422;BME280;6782;55.904;13.396;2023-06-24T10:48:38;99286.66;;;22.46;100.00
13422;BME280;6782;55.904;13.396;2023-06-24T10:51:25;99200.38;;;22.49;100.00
13422;BME280;6782;55.904;13.396;2023-06-24T10:54:12;98967.25;;;22.43;100.00
13422;BME280;6782;55.904;13.396;2023-06-24T10:57:00;99110.34;;;22.72;100.00
13422;BME280;6782;55.904;13.396;2023-06-24T10:59:47;99060.59;;;22.59;100.00
13422;BME280;6782;55.904;13.396;2023-06-24T11:02:35;99165.66;;;22.38;100.00
13422;BME280;6782;55.904;13.396;2023-06-24T11:05:24;99254.69;;;23.07;100.00
13422;BME280;6782;55.904;13.396;2023-06-24T11:08:12;99255.78;;;23.32;100.00
13422;BME280;6782;55.904;13.396;2023-06-24T11:11:00;99000.41;;;23.56;99.59
13422;BME280;6782;55.904;13.396;2023-06-24T11:13:48;98802.47;;;23.61;97.45
13422;BME280;6782;55.904;13.396;2023-06-24T11:16:35;98584.56;;;24.08;93.78
13422;BME280;6782;55.904;13.396;2023-06-24T11:19:24;98309.72;;;23.79;90.21
13422;BME280;6782;55.904;13.396;2023-06-24T11:22:13;98257.09;;;23.77;89.67
13422;BME280;6782;55.904;13.396;2023-06-24T11:25:00;98321.44;;;23.86;89.33
13422;BME280;6782;55.904;13.396;2023-06-24T11:27:50;98473.44;;;24.06;89.95
13422;BME280;6782;55.904;13.396;2023-06-24T11:30:37;98396.31;;;24.21;88.75
13422;BME280;6782;55.904;13.396;2023-06-24T11:33:28;97869.63;;;23.68;85.53
13422;BME280;6782;55.904;13.396;2023-06-24T11:36:16;98275.97;;;23.91;87.75
13422;BME280;6782;55.904;13.396;2023-06-24T11:39:05;97971.88;;;24.12;84.45
13422;BME280;6782;55.904;13.396;2023-06-24T11:41:52;97881.72;;;23.94;83.45
13422;BME280;6782;55.904;13.396;2023-06-24T11:44:43;98627.22;;;23.56;89.23
13422;BME280;6782;55.904;13.396;2023-06-24T11:47:33;98702.72;;;23.95;89.07
13422;BME280;6782;55.904;13.396;2023-06-24T11:50:25;99091.31;;;23.96;92.84
13422;BME280;6782;55.904;13.396;2023-06-24T11:53:13;98838.72;;;24.40;89.53
13422;BME280;6782;55.904;13.396;2023-06-24T11:56:03;98815.47;;;23.98;90.19
13422;BME280;6782;55.904;13.396;2023-06-24T11:58:50;99014.06;;;24.46;90.58
13422;BME280;6782;55.904;13.396;2023-06-24T12:01:37;98540.09;;;24.04;87.85
13422;BME280;6782;55.904;13.396;2023-06-24T12:04:27;98634.00;;;24.32;87.73
13422;BME280;6782;55.904;13.396;2023-06-24T12:07:15;98572.84;;;23.69;88.41
13422;BME280;6782;55.904;13.396;2023-06-24T12:10:03;99072.47;;;24.96;89.44
13422;BME280;6782;55.904;13.396;2023-06-24T12:12:52;98025.06;;;24.61;82.85
13422;BME280;6782;55.904;13.396;2023-06-24T12:15:39;98347.06;;;25.17;83.54
13422;BME280;6782;55.904;13.396;2023-06-24T12:18:26;98734.34;;;24.34;87.87
13422;BME280;6782;55.904;13.396;2023-06-24T12:21:14;98329.75;;;24.45;84.56
13422;BME280;6782;55.904;13.396;2023-06-24T12:24:01;98160.75;;;24.09;83.16
13422;BME280;6782;55.904;13.396;2023-06-24T12:26:48;97655.72;;;23.58;80.21
13422;BME280;6782;55.904;13.396;2023-06-24T12:29:37;97625.53;;;23.20;79.74
13422;BME280;6782;55.904;13.396;2023-06-24T12:32:24;97603.66;;;22.87;79.96
13422;BME280;6782;55.904;13.396;2023-06-24T12:35:12;98094.31;;;23.04;82.65
13422;BME280;6782;55.904;13.396;2023-06-24T12:37:59;98196.22;;;22.91;83.71
13422;BME280;6782;55.904;13.396;2023-06-24T12:40:47;98619.63;;;22.20;89.22
13422;BME280;6782;55.904;13.396;2023-06-24T12:43:34;99424.31;;;22.86;94.06
13422;BME280;6782;55.904;13.396;2023-06-24T12:46:23;99365.69;;;22.43;95.30
13422;BME280;6782;55.904;13.396;2023-06-24T12:49:10;99616.78;;;23.18;96.80
13422;BME280;6782;55.904;13.396;2023-06-24T12:51:57;99614.19;;;23.35;96.73
13422;BME280;6782;55.904;13.396;2023-06-24T12:54:44;99138.59;;;23.12;93.65
13422;BME280;6782;55.904;13.396;2023-06-24T12:57:32;99051.50;;;22.69;93.89
13422;BME280;6782;55.904;13.396;2023-06-24T13:00:19;99068.28;;;22.54;94.34
13422;BME280;6782;55.904;13.396;2023-06-24T13:03:08;99374.84;;;22.60;96.48
13422;BME280;6782;55.904;13.396;2023-06-24T13:05:55;99568.84;;;22.16;99.39
13422;BME280;6782;55.904;13.396;2023-06-24T13:08:43;99666.94;;;22.20;100.00
13422;BME280;6782;55.904;13.396;2023-06-24T13:11:30;99652.94;;;22.56;99.22
13422;BME280;6782;55.904;13.396;2023-06-24T13:14:17;99498.03;;;22.93;96.87
13422;BME280;6782;55.904;13.396;2023-06-24T13:17:05;99441.06;;;23.81;94.65
13422;BME280;6782;55.904;13.396;2023-06-24T13:19:54;99210.31;;;23.21;94.77
13422;BME280;6782;55.904;13.396;2023-06-24T13:22:42;99399.03;;;23.53;94.13
13422;BME280;6782;55.904;13.396;2023-06-24T13:25:29;98513.06;;;23.11;87.40
13422;BME280;6782;55.904;13.396;2023-06-24T13:28:17;98263.72;;;23.66;83.61
13422;BME280;6782;55.904;13.396;2023-06-24T13:31:04;98268.19;;;24.42;82.09
13422;BME280;6782;55.904;13.396;2023-06-24T13:33:51;98077.59;;;24.50;81.14
13422;BME280;6782;55.904;13.396;2023-06-24T13:36:41;100896.66;;;23.64;78.60
13422;BME280;6782;55.904;13.396;2023-06-24T13:39:28;100956.28;;;23.71;78.68
13422;BME280;6782;55.904;13.396;2023-06-24T13:42:15;100952.38;;;23.99;77.12
13422;BME280;6782;55.904;13.396;2023-06-24T13:45:04;100935.78;;;24.51;73.28
13422;BME280;6782;55.904;13.396;2023-06-24T13:47:52;100955.03;;;24.11;74.66
13422;BME280;6782;55.904;13.396;2023-06-24T13:50:40;101065.91;;;23.94;77.64
13422;BME280;6782;55.904;13.396;2023-06-24T13:53:29;101106.63;;;24.62;79.22
13422;BME280;6782;55.904;13.396;2023-06-24T13:56:17;101104.50;;;24.31;79.77
13422;BME280;6782;55.904;13.396;2023-06-24T13:59:04;101006.16;;;24.13;76.74
13422;BME280;6782;55.904;13.396;2023-06-24T14:01:51;101066.44;;;23.50;78.59
13422;BME280;6782;55.904;13.396;2023-06-24T14:04:38;101149.50;;;22.79;83.21
13422;BME280;6782;55.904;13.396;2023-06-24T14:07:26;101166.59;;;22.91;85.43
13422;BME280;6782;55.904;13.396;2023-06-24T14:10:15;101207.97;;;22.76;88.06
13422;BME280;6782;55.904;13.396;2023-06-24T14:13:02;101252.38;;;23.35;89.99
13422;BME280;6782;55.904;13.396;2023-06-24T14:15:50;101193.31;;;23.71;87.29
13422;BME280;6782;55.904;13.396;2023-06-24T14:18:38;101185.50;;;24.04;86.59
13422;BME280;6782;55.904;13.396;2023-06-24T14:21:25;101115.63;;;24.26;84.24
13422;BME280;6782;55.904;13.396;2023-06-24T14:24:14;101133.88;;;24.47;83.80
13422;BME280;6782;55.904;13.396;2023-06-24T14:27:04;101243.63;;;24.70;87.94
13422;BME280;6782;55.904;13.396;2023-06-24T14:29:51;101125.97;;;24.91;82.81
13422;BME280;6782;55.904;13.396;2023-06-24T14:32:38;101108.41;;;23.65;84.54
13422;BME280;6782;55.904;13.396;2023-06-24T14:35:25;101221.97;;;23.97;87.99
13422;BME280;6782;55.904;13.396;2023-06-24T14:38:13;101213.56;;;24.14;87.73